sensor_id;sensor_type;location;lat;lon;timestamp;temperature;humidity
43414;DHT22;29013;49.676;8.606;2023-03-04T00:04:57;2.4;99.9
43414;DHT22;29013;49.676;8.606;2023-03-04T00:10:38;2.3;99.9
43414;DHT22;29013;49.676;8.606;2023-03-04T00:16:20;2.4;99.9
43414;DHT22;29013;49.676;8.606;2023-03-04T00:21:44;2.5;99.9
43414;DHT22;29013;49.676;8.606;2023-03-04T00:27:08;2.3;99.9
43414;DHT22;29013;49.676;8.606;2023-03-04T00:32:33;2.0;99.9
43414;DHT22;29013;49.676;8.606;2023-03-04T00:37:58;1.8;99.9
43414;DHT22;29013;49.676;8.606;2023-03-04T00:43:22;1.7;99.9
43414;DHT22;29013;49.676;8.606;2023-03-04T00:48:47;1.6;99.9
43414;DHT22;29013;49.676;8.606;2023-03-04T00:54:12;1.5;99.9
43414;DHT22;29013;49.676;8.606;2023-03-04T00:59:36;1.5;99.9
43414;DHT22;29013;49.676;8.606;2023-03-04T01:05:20;1.3;99.9
43414;DHT22;29013;49.676;8.606;2023-03-04T01:10:43;1.4;99.9
43414;DHT22;29013;49.676;8.606;2023-03-04T01:16:09;1.5;99.9
43414;DHT22;29013;49.676;8.606;2023-03-04T01:21:28;1.6;99.9
43414;DHT22;29013;49.676;8.606;2023-03-04T01:26:52;1.7;99.9
43414;DHT22;29013;49.676;8.606;2023-03-04T01:32:41;1.6;99.9
43414;DHT22;29013;49.676;8.606;2023-03-04T01:37:58;1.8;99.9
43414;DHT22;29013;49.676;8.606;2023-03-04T01:43:22;1.7;99.9
43414;DHT22;29013;49.676;8.606;2023-03-04T01:48:39;1.5;99.9
43414;DHT22;29013;49.676;8.606;2023-03-04T01:54:04;1.5;99.9
43414;DHT22;29013;49.676;8.606;2023-03-04T01:59:30;1.4;99.9
43414;DHT22;29013;49.676;8.606;2023-03-04T02:04:55;1.4;99.9
43414;DHT22;29013;49.676;8.606;2023-03-04T02:10:20;1.3;99.9
43414;DHT22;29013;49.676;8.606;2023-03-04T02:15:44;1.3;99.9
43414;DHT22;29013;49.676;8.606;2023-03-04T02:21:06;1.2;99.9
43414;DHT22;29013;49.676;8.606;2023-03-04T02:26:23;1.3;99.9
43414;DHT22;29013;49.676;8.606;2023-03-04T02:32:05;1.3;99.9
43414;DHT22;29013;49.676;8.606;2023-03-04T02:37:22;1.4;99.9
43414;DHT22;29013;49.676;8.606;2023-03-04T02:43:05;1.3;99.9
43414;DHT22;29013;49.676;8.606;2023-03-04T02:48:23;1.4;99.9
43414;DHT22;29013;49.676;8.606;2023-03-04T02:53:47;1.5;99.9
43414;DHT22;29013;49.676;8.606;2023-03-04T02:59:12;1.5;99.9
43414;DHT22;29013;49.676;8.606;2023-03-04T03:04:31;1.6;99.9
43414;DHT22;29013;49.676;8.606;2023-03-04T03:09:55;1.8;99.9
43414;DHT22;29013;49.676;8.606;2023-03-04T03:15:14;2.0;99.9
43414;DHT22;29013;49.676;8.606;2023-03-04T03:20:38;2.1;99.9
43414;DHT22;29013;49.676;8.606;2023-03-04T03:26:03;2.1;99.9
43414;DHT22;29013;49.676;8.606;2023-03-04T03:31:27;2.0;99.9
43414;DHT22;29013;49.676;8.606;2023-03-04T03:36:52;1.9;99.9
43414;DHT22;29013;49.676;8.606;2023-03-04T03:42:11;1.9;99.9
43414;DHT22;29013;49.676;8.606;2023-03-04T03:47:29;1.7;99.9
43414;DHT22;29013;49.676;8.606;2023-03-04T03:52:53;1.4;99.9
43414;DHT22;29013;49.676;8.606;2023-03-04T03:58:17;1.2;99.9
43414;DHT22;29013;49.676;8.606;2023-03-04T04:03:36;1.3;99.9
43414;DHT22;29013;49.676;8.606;2023-03-04T04:09:01;1.3;99.9
43414;DHT22;29013;49.676;8.606;2023-03-04T04:14:26;1.4;99.9
43414;DHT22;29013;49.676;8.606;2023-03-04T04:19:50;1.2;99.9
43414;DHT22;29013;49.676;8.606;2023-03-04T04:25:14;1.1;99.9
43414;DHT22;29013;49.676;8.606;2023-03-04T04:30:39;0.9;99.9
43414;DHT22;29013;49.676;8.606;2023-03-04T04:35:58;1.0;99.9
43414;DHT22;29013;49.676;8.606;2023-03-04T04:41:23;1.0;99.9
43414;DHT22;29013;49.676;8.606;2023-03-04T04:46:41;1.1;99.9
43414;DHT22;29013;49.676;8.606;2023-03-04T04:52:22;1.1;99.9
43414;DHT22;29013;49.676;8.606;2023-03-04T04:57:46;1.4;99.9
43414;DHT22;29013;49.676;8.606;2023-03-04T05:03:04;1.6;99.9
43414;DHT22;29013;49.676;8.606;2023-03-04T05:08:29;1.8;99.9
43414;DHT22;29013;49.676;8.606;2023-03-04T05:13:53;2.0;99.9
43414;DHT22;29013;49.676;8.606;2023-03-04T05:19:18;2.2;99.9
43414;DHT22;29013;49.676;8.606;2023-03-04T05:24:42;2.2;99.9
43414;DHT22;29013;49.676;8.606;2023-03-04T05:30:11;2.3;99.9
43414;DHT22;29013;49.676;8.606;2023-03-04T05:35:29;2.5;99.9
43414;DHT22;29013;49.676;8.606;2023-03-04T05:40:59;2.5;99.9
43414;DHT22;29013;49.676;8.606;2023-03-04T05:46:21;2.3;99.9
43414;DHT22;29013;49.676;8.606;2023-03-04T05:51:45;2.1;99.9
43414;DHT22;29013;49.676;8.606;2023-03-04T05:57:03;2.1;99.9
43414;DHT22;29013;49.676;8.606;2023-03-04T06:02:22;2.3;99.9
43414;DHT22;29013;49.676;8.606;2023-03-04T06:07:47;2.4;99.9
43414;DHT22;29013;49.676;8.606;2023-03-04T06:13:11;2.2;99.9
43414;DHT22;29013;49.676;8.606;2023-03-04T06:18:34;2.0;99.9
43414;DHT22;29013;49.676;8.606;2023-03-04T06:24:03;1.9;99.9
43414;DHT22;29013;49.676;8.606;2023-03-04T06:29:31;1.8;99.9
43414;DHT22;29013;49.676;8.606;2023-03-04T06:34:48;1.9;99.9
43414;DHT22;29013;49.676;8.606;2023-03-04T06:40:10;2.0;99.9
43414;DHT22;29013;49.676;8.606;2023-03-04T06:45:29;2.4;99.9
43414;DHT22;29013;49.676;8.606;2023-03-04T06:50:53;2.6;99.9
43414;DHT22;29013;49.676;8.606;2023-03-04T06:56:13;2.8;99.9
43414;DHT22;29013;49.676;8.606;2023-03-04T07:01:54;2.9;99.9
43414;DHT22;29013;49.676;8.606;2023-03-04T07:07:12;3.1;99.9
43414;DHT22;29013;49.676;8.606;2023-03-04T07:12:31;3.1;99.9
43414;DHT22;29013;49.676;8.606;2023-03-04T07:17:52;3.1;99.9
43414;DHT22;29013;49.676;8.606;2023-03-04T07:23:34;3.2;99.9
43414;DHT22;29013;49.676;8.606;2023-03-04T07:28:51;3.5;99.9
43414;DHT22;29013;49.676;8.606;2023-03-04T07:34:16;3.4;99.9
43414;DHT22;29013;49.676;8.606;2023-03-04T07:40:07;3.0;99.9
43414;DHT22;29013;49.676;8.606;2023-03-04T07:45:24;2.9;99.9
43414;DHT22;29013;49.676;8.606;2023-03-04T07:50:49;2.8;99.9
43414;DHT22;29013;49.676;8.606;2023-03-04T07:56:12;2.7;99.9
43414;DHT22;29013;49.676;8.606;2023-03-04T08:01:30;2.8;99.9
43414;DHT22;29013;49.676;8.606;2023-03-04T08:06:54;3.1;99.9
43414;DHT22;29013;49.676;8.606;2023-03-04T08:12:12;3.5;99.9
43414;DHT22;29013;49.676;8.606;2023-03-04T08:17:38;3.6;99.9
43414;DHT22;29013;49.676;8.606;2023-03-04T08:23:02;3.9;99.9
43414;DHT22;29013;49.676;8.606;2023-03-04T08:28:28;4.0;99.9
43414;DHT22;29013;49.676;8.606;2023-03-04T08:33:50;4.2;99.9
43414;DHT22;29013;49.676;8.606;2023-03-04T08:39:15;4.0;99.9
43414;DHT22;29013;49.676;8.606;2023-03-04T08:44:40;3.7;99.9
43414;DHT22;29013;49.676;8.606;2023-03-04T08:50:07;3.5;99.9
43414;DHT22;29013;49.676;8.606;2023-03-04T08:55:31;3.5;99.9
43414;DHT22;29013;49.676;8.606;2023-03-04T09:00:51;3.5;99.9
43414;DHT22;29013;49.676;8.606;2023-03-04T09:06:12;3.6;99.9
43414;DHT22;29013;49.676;8.606;2023-03-04T09:11:37;3.6;99.9
43414;DHT22;29013;49.676;8.606;2023-03-04T09:17:02;3.6;99.9
43414;DHT22;29013;49.676;8.606;2023-03-04T09:22:24;3.8;99.9
43414;DHT22;29013;49.676;8.606;2023-03-04T09:27:49;3.9;99.9
43414;DHT22;29013;49.676;8.606;2023-03-04T09:33:07;3.9;99.9
43414;DHT22;29013;49.676;8.606;2023-03-04T09:39:10;3.9;99.9
43414;DHT22;29013;49.676;8.606;2023-03-04T09:44:34;4.3;99.9
43414;DHT22;29013;49.676;8.606;2023-03-04T09:49:57;4.5;99.9
43414;DHT22;29013;49.676;8.606;2023-03-04T09:55:19;4.4;99.9
43414;DHT22;29013;49.676;8.606;2023-03-04T10:00:42;4.6;99.9
43414;DHT22;29013;49.676;8.606;2023-03-04T10:06:08;5.0;99.9
43414;DHT22;29013;49.676;8.606;2023-03-04T10:11:34;5.3;99.9
43414;DHT22;29013;49.676;8.606;2023-03-04T10:17:16;5.5;99.9
43414;DHT22;29013;49.676;8.606;2023-03-04T10:22:40;5.9;99.9
43414;DHT22;29013;49.676;8.606;2023-03-04T10:28:03;6.0;99.9
43414;DHT22;29013;49.676;8.606;2023-03-04T10:33:27;6.1;99.8
43414;DHT22;29013;49.676;8.606;2023-03-04T10:38:45;5.9;99.0
43414;DHT22;29013;49.676;8.606;2023-03-04T10:44:36;5.4;99.2
43414;DHT22;29013;49.676;8.606;2023-03-04T10:49:58;5.4;99.3
43414;DHT22;29013;49.676;8.606;2023-03-04T10:55:22;5.4;99.7
43414;DHT22;29013;49.676;8.606;2023-03-04T11:00:42;5.4;99.4
43414;DHT22;29013;49.676;8.606;2023-03-04T11:06:20;5.4;99.6
43414;DHT22;29013;49.676;8.606;2023-03-04T11:11:41;5.4;99.0
43414;DHT22;29013;49.676;8.606;2023-03-04T11:17:15;5.5;99.2
43414;DHT22;29013;49.676;8.606;2023-03-04T11:22:33;5.6;99.0
43414;DHT22;29013;49.676;8.606;2023-03-04T11:27:53;5.7;99.4
43414;DHT22;29013;49.676;8.606;2023-03-04T11:33:50;5.7;99.9
43414;DHT22;29013;49.676;8.606;2023-03-04T11:39:09;6.2;99.6
43414;DHT22;29013;49.676;8.606;2023-03-04T11:44:26;6.2;99.6
43414;DHT22;29013;49.676;8.606;2023-03-04T11:55:44;6.5;99.0
43414;DHT22;29013;49.676;8.606;2023-03-04T12:01:03;6.8;98.7
43414;DHT22;29013;49.676;8.606;2023-03-04T12:06:30;7.0;98.3
43414;DHT22;29013;49.676;8.606;2023-03-04T12:11:57;7.1;97.9
43414;DHT22;29013;49.676;8.606;2023-03-04T12:17:57;7.1;98.0
43414;DHT22;29013;49.676;8.606;2023-03-04T12:23:28;7.2;96.6
43414;DHT22;29013;49.676;8.606;2023-03-04T12:28:52;6.6;96.5
43414;DHT22;29013;49.676;8.606;2023-03-04T12:40:10;6.3;97.7
43414;DHT22;29013;49.676;8.606;2023-03-04T12:45:31;6.4;98.0
43414;DHT22;29013;49.676;8.606;2023-03-04T12:50:58;6.6;97.9
43414;DHT22;29013;49.676;8.606;2023-03-04T12:56:24;6.8;97.7
43414;DHT22;29013;49.676;8.606;2023-03-04T13:02:07;6.9;97.7
43414;DHT22;29013;49.676;8.606;2023-03-04T13:07:29;7.1;97.3
43414;DHT22;29013;49.676;8.606;2023-03-04T13:12:49;7.2;97.1
43414;DHT22;29013;49.676;8.606;2023-03-04T13:18:31;7.3;97.0
43414;DHT22;29013;49.676;8.606;2023-03-04T13:23:55;7.3;96.4
43414;DHT22;29013;49.676;8.606;2023-03-04T13:29:35;7.3;96.6
43414;DHT22;29013;49.676;8.606;2023-03-04T13:34:53;6.8;95.7
43414;DHT22;29013;49.676;8.606;2023-03-04T13:40:34;6.4;96.6
43414;DHT22;29013;49.676;8.606;2023-03-04T13:45:52;6.3;96.8
43414;DHT22;29013;49.676;8.606;2023-03-04T13:51:17;6.2;97.2
43414;DHT22;29013;49.676;8.606;2023-03-04T13:56:36;6.1;97.4
43414;DHT22;29013;49.676;8.606;2023-03-04T14:02:02;6.0;97.5
43414;DHT22;29013;49.676;8.606;2023-03-04T14:07:23;6.2;98.0
43414;DHT22;29013;49.676;8.606;2023-03-04T14:12:44;6.5;98.0
43414;DHT22;29013;49.676;8.606;2023-03-04T14:18:00;6.9;98.0
43414;DHT22;29013;49.676;8.606;2023-03-04T14:23:29;7.1;97.5
43414;DHT22;29013;49.676;8.606;2023-03-04T14:28:52;7.4;97.5
43414;DHT22;29013;49.676;8.606;2023-03-04T14:34:41;7.6;97.5
43414;DHT22;29013;49.676;8.606;2023-03-04T14:40:09;7.9;96.8
43414;DHT22;29013;49.676;8.606;2023-03-04T14:45:25;7.9;96.5
43414;DHT22;29013;49.676;8.606;2023-03-04T14:50:51;8.0;96.4
43414;DHT22;29013;49.676;8.606;2023-03-04T14:56:13;8.0;96.2
43414;DHT22;29013;49.676;8.606;2023-03-04T15:01:38;8.0;96.2
43414;DHT22;29013;49.676;8.606;2023-03-04T15:06:57;7.5;96.0
43414;DHT22;29013;49.676;8.606;2023-03-04T15:12:26;7.0;96.4
43414;DHT22;29013;49.676;8.606;2023-03-04T15:17:44;7.1;97.0
43414;DHT22;29013;49.676;8.606;2023-03-04T15:23:04;7.2;97.0
43414;DHT22;29013;49.676;8.606;2023-03-04T15:28:23;7.3;96.9
43414;DHT22;29013;49.676;8.606;2023-03-04T15:33:47;7.4;97.0
43414;DHT22;29013;49.676;8.606;2023-03-04T15:39:08;7.5;96.9
43414;DHT22;29013;49.676;8.606;2023-03-04T15:44:32;7.5;96.8
43414;DHT22;29013;49.676;8.606;2023-03-04T15:49:55;7.5;96.8
43414;DHT22;29013;49.676;8.606;2023-03-04T15:55:20;7.4;96.3
43414;DHT22;29013;49.676;8.606;2023-03-04T16:00:39;7.1;96.2
43414;DHT22;29013;49.676;8.606;2023-03-04T16:06:04;6.7;96.8
43414;DHT22;29013;49.676;8.606;2023-03-04T16:11:23;6.6;97.6
43414;DHT22;29013;49.676;8.606;2023-03-04T16:16:45;6.8;97.7
43414;DHT22;29013;49.676;8.606;2023-03-04T16:37:39;10.5;91.9
43414;DHT22;29013;49.676;8.606;2023-03-04T16:43:01;9.1;93.6
43414;DHT22;29013;49.676;8.606;2023-03-04T16:48:20;8.2;94.8
43414;DHT22;29013;49.676;8.606;2023-03-04T16:53:46;7.7;95.6
43414;DHT22;29013;49.676;8.606;2023-03-04T16:59:09;7.3;95.5
43414;DHT22;29013;49.676;8.606;2023-03-04T17:04:32;6.6;96.0
43414;DHT22;29013;49.676;8.606;2023-03-04T17:09:56;6.1;96.8
43414;DHT22;29013;49.676;8.606;2023-03-04T17:15:21;6.1;97.7
43414;DHT22;29013;49.676;8.606;2023-03-04T17:20:40;6.2;98.1
43414;DHT22;29013;49.676;8.606;2023-03-04T17:26:06;6.2;98.3
43414;DHT22;29013;49.676;8.606;2023-03-04T17:31:30;6.3;98.4
43414;DHT22;29013;49.676;8.606;2023-03-04T17:36:54;6.4;98.4
43414;DHT22;29013;49.676;8.606;2023-03-04T17:42:20;6.5;98.5
43414;DHT22;29013;49.676;8.606;2023-03-04T17:47:45;6.5;98.3
43414;DHT22;29013;49.676;8.606;2023-03-04T17:53:09;6.3;97.9
43414;DHT22;29013;49.676;8.606;2023-03-04T17:58:34;6.0;97.9
43414;DHT22;29013;49.676;8.606;2023-03-04T18:04:12;5.8;98.7
43414;DHT22;29013;49.676;8.606;2023-03-04T18:09:54;5.8;99.2
43414;DHT22;29013;49.676;8.606;2023-03-04T18:15:18;6.2;99.0
43414;DHT22;29013;49.676;8.606;2023-03-04T18:20:43;6.2;98.9
43414;DHT22;29013;49.676;8.606;2023-03-04T18:26:02;6.4;98.9
43414;DHT22;29013;49.676;8.606;2023-03-04T18:31:40;6.4;99.1
43414;DHT22;29013;49.676;8.606;2023-03-04T18:36:57;6.6;98.6
43414;DHT22;29013;49.676;8.606;2023-03-04T18:42:20;6.6;98.3
43414;DHT22;29013;49.676;8.606;2023-03-04T18:47:45;6.2;97.9
43414;DHT22;29013;49.676;8.606;2023-03-04T18:53:09;5.9;98.1
43414;DHT22;29013;49.676;8.606;2023-03-04T18:58:35;5.7;98.4
43414;DHT22;29013;49.676;8.606;2023-03-04T19:03:53;5.6;98.4
43414;DHT22;29013;49.676;8.606;2023-03-04T19:09:41;5.4;99.3
43414;DHT22;29013;49.676;8.606;2023-03-04T19:15:19;5.6;99.2
43414;DHT22;29013;49.676;8.606;2023-03-04T19:20:37;5.6;98.8
43414;DHT22;29013;49.676;8.606;2023-03-04T19:25:56;5.5;99.3
43414;DHT22;29013;49.676;8.606;2023-03-04T19:31:21;5.6;99.9
43414;DHT22;29013;49.676;8.606;2023-03-04T19:36:46;5.7;99.9
43414;DHT22;29013;49.676;8.606;2023-03-04T19:42:04;5.9;99.9
43414;DHT22;29013;49.676;8.606;2023-03-04T19:47:28;6.1;99.7
43414;DHT22;29013;49.676;8.606;2023-03-04T19:52:52;6.2;99.6
43414;DHT22;29013;49.676;8.606;2023-03-04T19:58:38;6.2;99.8
43414;DHT22;29013;49.676;8.606;2023-03-04T20:17:38;9.0;94.2
43414;DHT22;29013;49.676;8.606;2023-03-04T20:22:59;7.8;95.8
43414;DHT22;29013;49.676;8.606;2023-03-04T20:28:22;7.0;97.4
43414;DHT22;29013;49.676;8.606;2023-03-04T20:33:43;6.6;98.4
43414;DHT22;29013;49.676;8.606;2023-03-04T20:39:06;6.3;99.1
43414;DHT22;29013;49.676;8.606;2023-03-04T20:44:30;6.0;99.1
43414;DHT22;29013;49.676;8.606;2023-03-04T20:49:54;5.7;99.4
43414;DHT22;29013;49.676;8.606;2023-03-04T20:55:14;5.5;99.9
43414;DHT22;29013;49.676;8.606;2023-03-04T21:00:39;5.4;99.9
43414;DHT22;29013;49.676;8.606;2023-03-04T21:06:02;5.4;99.9
43414;DHT22;29013;49.676;8.606;2023-03-04T21:11:25;5.3;99.9
43414;DHT22;29013;49.676;8.606;2023-03-04T21:16:50;5.4;99.9
43414;DHT22;29013;49.676;8.606;2023-03-04T21:22:16;5.6;99.9
43414;DHT22;29013;49.676;8.606;2023-03-04T21:27:33;5.9;99.9
43414;DHT22;29013;49.676;8.606;2023-03-04T21:32:51;6.0;99.9
43414;DHT22;29013;49.676;8.606;2023-03-04T21:38:17;6.1;99.9
43414;DHT22;29013;49.676;8.606;2023-03-04T21:43:39;6.2;99.9
43414;DHT22;29013;49.676;8.606;2023-03-04T21:49:22;6.0;99.9
43414;DHT22;29013;49.676;8.606;2023-03-04T21:55:12;5.8;99.9
43414;DHT22;29013;49.676;8.606;2023-03-04T22:00:35;5.7;99.9
43414;DHT22;29013;49.676;8.606;2023-03-04T22:06:04;5.6;99.9
43414;DHT22;29013;49.676;8.606;2023-03-04T22:11:24;5.7;99.9
43414;DHT22;29013;49.676;8.606;2023-03-04T22:16:43;5.8;99.9
43414;DHT22;29013;49.676;8.606;2023-03-04T22:22:34;5.9;99.9
43414;DHT22;29013;49.676;8.606;2023-03-04T22:27:58;6.2;99.9
43414;DHT22;29013;49.676;8.606;2023-03-04T22:33:23;6.3;99.9
43414;DHT22;29013;49.676;8.606;2023-03-04T22:38:42;6.3;99.9
43414;DHT22;29013;49.676;8.606;2023-03-04T22:44:06;6.0;99.9
43414;DHT22;29013;49.676;8.606;2023-03-04T22:49:30;5.7;99.9
43414;DHT22;29013;49.676;8.606;2023-03-04T22:55:18;5.5;99.9
43414;DHT22;29013;49.676;8.606;2023-03-04T23:00:40;5.5;99.9
43414;DHT22;29013;49.676;8.606;2023-03-04T23:06:06;5.6;99.9
43414;DHT22;29013;49.676;8.606;2023-03-04T23:11:26;5.7;99.9
43414;DHT22;29013;49.676;8.606;2023-03-04T23:16:48;5.8;99.9
43414;DHT22;29013;49.676;8.606;2023-03-04T23:22:12;5.9;99.9
43414;DHT22;29013;49.676;8.606;2023-03-04T23:27:37;6.0;99.9
43414;DHT22;29013;49.676;8.606;2023-03-04T23:32:56;6.1;99.9
43414;DHT22;29013;49.676;8.606;2023-03-04T23:38:15;6.1;99.9
43414;DHT22;29013;49.676;8.606;2023-03-04T23:43:38;6.1;99.9
43414;DHT22;29013;49.676;8.606;2023-03-04T23:49:02;6.2;99.9
43414;DHT22;29013;49.676;8.606;2023-03-04T23:54:21;6.0;99.9
43414;DHT22;29013;49.676;8.606;2023-03-04T23:59:39;5.7;99.9
